sensor_id;sensor_type;location;lat;lon;timestamp;P1;durP1;ratioP1;P2;durP2;ratioP2
4305;SDS011;2166;49.926;8.608;2023-08-07T00:00:44;0.00;;;0.00;;
4305;SDS011;2166;49.926;8.608;2023-08-07T00:03:12;0.10;;;0.10;;
4305;SDS011;2166;49.926;8.608;2023-08-07T00:05:46;0.00;;;0.00;;
4305;SDS011;2166;49.926;8.608;2023-08-07T00:08:15;0.70;;;0.70;;
4305;SDS011;2166;49.926;8.608;2023-08-07T00:10:43;0.20;;;0.20;;
4305;SDS011;2166;49.926;8.608;2023-08-07T00:13:12;0.00;;;0.00;;
4305;SDS011;2166;49.926;8.608;2023-08-07T00:15:41;0.10;;;0.10;;
4305;SDS011;2166;49.926;8.608;2023-08-07T00:18:09;0.00;;;0.00;;
4305;SDS011;2166;49.926;8.608;2023-08-07T00:20:38;0.22;;;0.22;;
4305;SDS011;2166;49.926;8.608;2023-08-07T00:23:08;0.00;;;0.00;;
4305;SDS011;2166;49.926;8.608;2023-08-07T00:25:36;0.30;;;0.30;;
4305;SDS011;2166;49.926;8.608;2023-08-07T00:28:05;0.05;;;0.05;;
4305;SDS011;2166;49.926;8.608;2023-08-07T00:30:33;0.00;;;0.00;;
4305;SDS011;2166;49.926;8.608;2023-08-07T00:33:02;0.00;;;0.00;;
4305;SDS011;2166;49.926;8.608;2023-08-07T00:35:30;0.00;;;0.00;;
4305;SDS011;2166;49.926;8.608;2023-08-07T00:37:59;0.00;;;0.00;;
4305;SDS011;2166;49.926;8.608;2023-08-07T00:40:29;0.10;;;0.10;;
4305;SDS011;2166;49.926;8.608;2023-08-07T00:43:04;0.00;;;0.00;;
4305;SDS011;2166;49.926;8.608;2023-08-07T00:45:34;0.10;;;0.10;;
4305;SDS011;2166;49.926;8.608;2023-08-07T00:48:04;0.00;;;0.00;;
4305;SDS011;2166;49.926;8.608;2023-08-07T00:50:33;0.20;;;0.20;;
4305;SDS011;2166;49.926;8.608;2023-08-07T00:53:13;0.00;;;0.00;;
4305;SDS011;2166;49.926;8.608;2023-08-07T00:55:43;0.10;;;0.10;;
4305;SDS011;2166;49.926;8.608;2023-08-07T00:58:11;0.05;;;0.05;;
4305;SDS011;2166;49.926;8.608;2023-08-07T01:00:47;0.10;;;0.10;;
4305;SDS011;2166;49.926;8.608;2023-08-07T01:03:16;0.10;;;0.10;;
4305;SDS011;2166;49.926;8.608;2023-08-07T01:05:44;0.10;;;0.10;;
4305;SDS011;2166;49.926;8.608;2023-08-07T01:08:13;0.10;;;0.10;;
4305;SDS011;2166;49.926;8.608;2023-08-07T01:10:47;0.00;;;0.00;;
4305;SDS011;2166;49.926;8.608;2023-08-07T01:13:28;0.10;;;0.10;;
4305;SDS011;2166;49.926;8.608;2023-08-07T01:16:02;0.03;;;0.03;;
4305;SDS011;2166;49.926;8.608;2023-08-07T01:18:38;2.45;;;1.85;;
4305;SDS011;2166;49.926;8.608;2023-08-07T01:21:08;0.10;;;0.10;;
4305;SDS011;2166;49.926;8.608;2023-08-07T01:23:47;0.10;;;0.10;;
4305;SDS011;2166;49.926;8.608;2023-08-07T01:26:19;0.00;;;0.00;;
4305;SDS011;2166;49.926;8.608;2023-08-07T01:28:50;0.57;;;0.57;;
4305;SDS011;2166;49.926;8.608;2023-08-07T01:31:23;0.00;;;0.00;;
4305;SDS011;2166;49.926;8.608;2023-08-07T01:33:54;0.00;;;0.00;;
4305;SDS011;2166;49.926;8.608;2023-08-07T01:36:27;0.20;;;0.20;;
4305;SDS011;2166;49.926;8.608;2023-08-07T01:38:58;0.05;;;0.05;;
4305;SDS011;2166;49.926;8.608;2023-08-07T01:41:29;0.05;;;0.05;;
4305;SDS011;2166;49.926;8.608;2023-08-07T01:43:57;0.00;;;0.00;;
4305;SDS011;2166;49.926;8.608;2023-08-07T01:46:26;0.10;;;0.10;;
4305;SDS011;2166;49.926;8.608;2023-08-07T01:48:54;0.10;;;0.10;;
4305;SDS011;2166;49.926;8.608;2023-08-07T01:51:23;0.00;;;0.00;;
4305;SDS011;2166;49.926;8.608;2023-08-07T01:53:51;0.10;;;0.10;;
4305;SDS011;2166;49.926;8.608;2023-08-07T01:56:22;0.00;;;0.00;;
4305;SDS011;2166;49.926;8.608;2023-08-07T01:58:51;0.00;;;0.00;;
4305;SDS011;2166;49.926;8.608;2023-08-07T02:01:19;0.10;;;0.10;;
4305;SDS011;2166;49.926;8.608;2023-08-07T02:03:48;0.10;;;0.10;;
4305;SDS011;2166;49.926;8.608;2023-08-07T02:06:17;0.68;;;0.32;;
4305;SDS011;2166;49.926;8.608;2023-08-07T02:08:45;0.00;;;0.00;;
4305;SDS011;2166;49.926;8.608;2023-08-07T02:11:14;0.43;;;0.43;;
4305;SDS011;2166;49.926;8.608;2023-08-07T02:13:44;0.00;;;0.00;;
4305;SDS011;2166;49.926;8.608;2023-08-07T02:16:13;0.10;;;0.10;;
4305;SDS011;2166;49.926;8.608;2023-08-07T02:18:41;0.00;;;0.00;;
4305;SDS011;2166;49.926;8.608;2023-08-07T02:21:11;0.00;;;0.00;;
4305;SDS011;2166;49.926;8.608;2023-08-07T02:23:40;0.30;;;0.30;;
4305;SDS011;2166;49.926;8.608;2023-08-07T02:26:09;0.10;;;0.10;;
4305;SDS011;2166;49.926;8.608;2023-08-07T02:28:38;0.20;;;0.20;;
4305;SDS011;2166;49.926;8.608;2023-08-07T02:31:08;0.10;;;0.10;;
4305;SDS011;2166;49.926;8.608;2023-08-07T02:33:39;0.63;;;0.63;;
4305;SDS011;2166;49.926;8.608;2023-08-07T02:36:07;0.10;;;0.10;;
4305;SDS011;2166;49.926;8.608;2023-08-07T02:38:36;0.10;;;0.10;;
4305;SDS011;2166;49.926;8.608;2023-08-07T02:41:04;0.10;;;0.10;;
4305;SDS011;2166;49.926;8.608;2023-08-07T02:43:33;0.47;;;0.47;;
4305;SDS011;2166;49.926;8.608;2023-08-07T02:46:03;0.10;;;0.10;;
4305;SDS011;2166;49.926;8.608;2023-08-07T02:48:33;0.10;;;0.10;;
4305;SDS011;2166;49.926;8.608;2023-08-07T02:51:01;0.00;;;0.00;;
4305;SDS011;2166;49.926;8.608;2023-08-07T02:53:30;0.80;;;0.80;;
4305;SDS011;2166;49.926;8.608;2023-08-07T02:55:58;0.10;;;0.10;;
4305;SDS011;2166;49.926;8.608;2023-08-07T02:58:27;0.00;;;0.00;;
4305;SDS011;2166;49.926;8.608;2023-08-07T03:00:56;0.10;;;0.10;;
4305;SDS011;2166;49.926;8.608;2023-08-07T03:03:25;0.10;;;0.10;;
4305;SDS011;2166;49.926;8.608;2023-08-07T03:05:55;0.10;;;0.10;;
4305;SDS011;2166;49.926;8.608;2023-08-07T03:08:23;0.10;;;0.10;;
4305;SDS011;2166;49.926;8.608;2023-08-07T03:10:52;0.08;;;0.08;;
4305;SDS011;2166;49.926;8.608;2023-08-07T03:13:23;0.10;;;0.10;;
4305;SDS011;2166;49.926;8.608;2023-08-07T03:15:58;7.65;;;2.47;;
4305;SDS011;2166;49.926;8.608;2023-08-07T03:18:27;4.88;;;2.30;;
4305;SDS011;2166;49.926;8.608;2023-08-07T03:20:57;7.10;;;2.15;;
4305;SDS011;2166;49.926;8.608;2023-08-07T03:23:26;5.95;;;1.92;;
4305;SDS011;2166;49.926;8.608;2023-08-07T03:26:02;9.23;;;2.15;;
4305;SDS011;2166;49.926;8.608;2023-08-07T03:28:46;7.35;;;1.92;;
4305;SDS011;2166;49.926;8.608;2023-08-07T03:31:16;8.15;;;2.33;;
4305;SDS011;2166;49.926;8.608;2023-08-07T03:33:45;4.85;;;1.92;;
4305;SDS011;2166;49.926;8.608;2023-08-07T03:36:17;5.13;;;1.88;;
4305;SDS011;2166;49.926;8.608;2023-08-07T03:38:46;9.25;;;2.17;;
4305;SDS011;2166;49.926;8.608;2023-08-07T03:41:14;6.30;;;1.88;;
4305;SDS011;2166;49.926;8.608;2023-08-07T03:43:45;6.35;;;2.47;;
4305;SDS011;2166;49.926;8.608;2023-08-07T03:46:15;7.28;;;2.00;;
4305;SDS011;2166;49.926;8.608;2023-08-07T03:48:43;3.25;;;1.67;;
4305;SDS011;2166;49.926;8.608;2023-08-07T03:51:14;3.35;;;1.52;;
4305;SDS011;2166;49.926;8.608;2023-08-07T03:53:49;8.27;;;2.00;;
4305;SDS011;2166;49.926;8.608;2023-08-07T03:56:17;9.80;;;2.00;;
4305;SDS011;2166;49.926;8.608;2023-08-07T03:58:46;4.75;;;2.13;;
4305;SDS011;2166;49.926;8.608;2023-08-07T04:01:18;4.45;;;1.65;;
4305;SDS011;2166;49.926;8.608;2023-08-07T04:03:47;7.75;;;1.90;;
4305;SDS011;2166;49.926;8.608;2023-08-07T04:06:16;5.97;;;1.85;;
4305;SDS011;2166;49.926;8.608;2023-08-07T04:08:44;7.57;;;2.25;;
4305;SDS011;2166;49.926;8.608;2023-08-07T04:11:16;4.75;;;2.08;;
4305;SDS011;2166;49.926;8.608;2023-08-07T04:13:44;5.32;;;2.00;;
4305;SDS011;2166;49.926;8.608;2023-08-07T04:16:13;7.03;;;2.10;;
4305;SDS011;2166;49.926;8.608;2023-08-07T04:18:45;8.85;;;1.95;;
4305;SDS011;2166;49.926;8.608;2023-08-07T04:21:13;5.07;;;1.50;;
4305;SDS011;2166;49.926;8.608;2023-08-07T04:23:42;5.40;;;1.75;;
4305;SDS011;2166;49.926;8.608;2023-08-07T04:26:11;4.85;;;1.85;;
4305;SDS011;2166;49.926;8.608;2023-08-07T04:28:42;3.78;;;1.70;;
4305;SDS011;2166;49.926;8.608;2023-08-07T04:31:10;7.88;;;2.20;;
4305;SDS011;2166;49.926;8.608;2023-08-07T04:33:39;6.53;;;2.45;;
4305;SDS011;2166;49.926;8.608;2023-08-07T04:36:08;5.93;;;2.20;;
4305;SDS011;2166;49.926;8.608;2023-08-07T04:38:36;5.50;;;2.05;;
4305;SDS011;2166;49.926;8.608;2023-08-07T04:41:04;4.72;;;2.20;;
4305;SDS011;2166;49.926;8.608;2023-08-07T04:43:33;4.10;;;2.10;;
4305;SDS011;2166;49.926;8.608;2023-08-07T04:46:03;5.30;;;1.88;;
4305;SDS011;2166;49.926;8.608;2023-08-07T04:48:31;6.30;;;1.90;;
4305;SDS011;2166;49.926;8.608;2023-08-07T04:51:00;7.50;;;2.25;;
4305;SDS011;2166;49.926;8.608;2023-08-07T04:53:28;6.93;;;1.65;;
4305;SDS011;2166;49.926;8.608;2023-08-07T04:55:58;6.03;;;1.88;;
4305;SDS011;2166;49.926;8.608;2023-08-07T04:58:28;9.35;;;1.80;;
4305;SDS011;2166;49.926;8.608;2023-08-07T05:00:57;3.60;;;1.60;;
4305;SDS011;2166;49.926;8.608;2023-08-07T05:03:29;6.63;;;1.88;;
4305;SDS011;2166;49.926;8.608;2023-08-07T05:05:59;7.60;;;2.15;;
4305;SDS011;2166;49.926;8.608;2023-08-07T05:08:27;5.47;;;1.58;;
4305;SDS011;2166;49.926;8.608;2023-08-07T05:10:56;3.53;;;1.50;;
4305;SDS011;2166;49.926;8.608;2023-08-07T05:13:25;4.97;;;1.73;;
4305;SDS011;2166;49.926;8.608;2023-08-07T05:15:54;7.38;;;1.95;;
4305;SDS011;2166;49.926;8.608;2023-08-07T05:18:24;7.65;;;1.77;;
4305;SDS011;2166;49.926;8.608;2023-08-07T05:20:54;6.38;;;1.65;;
4305;SDS011;2166;49.926;8.608;2023-08-07T05:23:23;6.53;;;1.40;;
4305;SDS011;2166;49.926;8.608;2023-08-07T05:25:51;6.85;;;1.77;;
4305;SDS011;2166;49.926;8.608;2023-08-07T05:28:20;4.68;;;2.25;;
4305;SDS011;2166;49.926;8.608;2023-08-07T05:30:49;4.28;;;1.35;;
4305;SDS011;2166;49.926;8.608;2023-08-07T05:33:17;6.88;;;2.10;;
4305;SDS011;2166;49.926;8.608;2023-08-07T05:35:45;5.82;;;2.03;;
4305;SDS011;2166;49.926;8.608;2023-08-07T05:38:15;4.78;;;1.67;;
4305;SDS011;2166;49.926;8.608;2023-08-07T05:40:46;4.60;;;1.50;;
4305;SDS011;2166;49.926;8.608;2023-08-07T05:43:16;5.70;;;1.88;;
4305;SDS011;2166;49.926;8.608;2023-08-07T05:45:44;3.22;;;1.48;;
4305;SDS011;2166;49.926;8.608;2023-08-07T05:48:13;3.70;;;1.70;;
4305;SDS011;2166;49.926;8.608;2023-08-07T05:50:42;9.32;;;1.67;;
4305;SDS011;2166;49.926;8.608;2023-08-07T05:53:10;9.00;;;1.83;;
4305;SDS011;2166;49.926;8.608;2023-08-07T05:55:40;4.43;;;1.58;;
4305;SDS011;2166;49.926;8.608;2023-08-07T05:58:09;7.38;;;2.10;;
4305;SDS011;2166;49.926;8.608;2023-08-07T06:00:37;4.22;;;1.58;;
4305;SDS011;2166;49.926;8.608;2023-08-07T06:03:06;4.43;;;1.67;;
4305;SDS011;2166;49.926;8.608;2023-08-07T06:05:34;8.85;;;1.63;;
4305;SDS011;2166;49.926;8.608;2023-08-07T06:08:04;5.40;;;2.00;;
4305;SDS011;2166;49.926;8.608;2023-08-07T06:10:33;3.47;;;1.90;;
4305;SDS011;2166;49.926;8.608;2023-08-07T06:13:03;4.93;;;1.90;;
4305;SDS011;2166;49.926;8.608;2023-08-07T06:15:33;8.18;;;1.73;;
4305;SDS011;2166;49.926;8.608;2023-08-07T06:18:02;6.55;;;1.65;;
4305;SDS011;2166;49.926;8.608;2023-08-07T06:20:31;3.50;;;2.08;;
4305;SDS011;2166;49.926;8.608;2023-08-07T06:23:01;4.22;;;1.35;;
4305;SDS011;2166;49.926;8.608;2023-08-07T06:25:30;5.40;;;2.05;;
4305;SDS011;2166;49.926;8.608;2023-08-07T06:28:00;6.93;;;1.58;;
4305;SDS011;2166;49.926;8.608;2023-08-07T06:30:31;4.20;;;1.60;;
4305;SDS011;2166;49.926;8.608;2023-08-07T06:33:01;4.03;;;1.33;;
4305;SDS011;2166;49.926;8.608;2023-08-07T06:35:36;7.75;;;2.28;;
4305;SDS011;2166;49.926;8.608;2023-08-07T06:38:05;6.22;;;2.20;;
4305;SDS011;2166;49.926;8.608;2023-08-07T06:40:34;4.50;;;1.80;;
4305;SDS011;2166;49.926;8.608;2023-08-07T06:43:03;3.70;;;1.55;;
4305;SDS011;2166;49.926;8.608;2023-08-07T06:45:36;5.80;;;1.40;;
4305;SDS011;2166;49.926;8.608;2023-08-07T06:48:05;4.45;;;1.63;;
4305;SDS011;2166;49.926;8.608;2023-08-07T06:50:34;3.10;;;1.60;;
4305;SDS011;2166;49.926;8.608;2023-08-07T06:53:02;3.30;;;1.23;;
4305;SDS011;2166;49.926;8.608;2023-08-07T06:55:30;9.27;;;1.88;;
4305;SDS011;2166;49.926;8.608;2023-08-07T06:57:59;3.42;;;1.65;;
4305;SDS011;2166;49.926;8.608;2023-08-07T07:00:28;4.40;;;2.00;;
4305;SDS011;2166;49.926;8.608;2023-08-07T07:02:58;6.53;;;1.10;;
4305;SDS011;2166;49.926;8.608;2023-08-07T07:05:27;4.43;;;1.40;;
4305;SDS011;2166;49.926;8.608;2023-08-07T07:07:56;6.32;;;1.70;;
4305;SDS011;2166;49.926;8.608;2023-08-07T07:10:25;8.27;;;2.40;;
4305;SDS011;2166;49.926;8.608;2023-08-07T07:12:53;8.15;;;2.45;;
4305;SDS011;2166;49.926;8.608;2023-08-07T07:15:22;4.38;;;1.67;;
4305;SDS011;2166;49.926;8.608;2023-08-07T07:17:51;4.13;;;1.38;;
4305;SDS011;2166;49.926;8.608;2023-08-07T07:20:22;4.72;;;1.80;;
4305;SDS011;2166;49.926;8.608;2023-08-07T07:22:50;4.28;;;1.88;;
4305;SDS011;2166;49.926;8.608;2023-08-07T07:25:18;2.58;;;1.20;;
4305;SDS011;2166;49.926;8.608;2023-08-07T07:27:47;3.13;;;1.20;;
4305;SDS011;2166;49.926;8.608;2023-08-07T07:30:15;3.47;;;1.40;;
4305;SDS011;2166;49.926;8.608;2023-08-07T07:32:45;6.55;;;1.40;;
4305;SDS011;2166;49.926;8.608;2023-08-07T07:35:14;3.58;;;1.67;;
4305;SDS011;2166;49.926;8.608;2023-08-07T07:37:44;5.03;;;1.63;;
4305;SDS011;2166;49.926;8.608;2023-08-07T07:40:12;4.03;;;1.08;;
4305;SDS011;2166;49.926;8.608;2023-08-07T07:42:40;3.90;;;1.55;;
4305;SDS011;2166;49.926;8.608;2023-08-07T07:45:09;4.43;;;1.70;;
4305;SDS011;2166;49.926;8.608;2023-08-07T07:47:38;5.40;;;1.65;;
4305;SDS011;2166;49.926;8.608;2023-08-07T07:50:07;2.53;;;1.30;;
4305;SDS011;2166;49.926;8.608;2023-08-07T07:52:37;8.02;;;1.50;;
4305;SDS011;2166;49.926;8.608;2023-08-07T07:55:07;3.53;;;1.80;;
4305;SDS011;2166;49.926;8.608;2023-08-07T07:57:37;2.17;;;1.23;;
4305;SDS011;2166;49.926;8.608;2023-08-07T08:00:06;4.00;;;1.33;;
4305;SDS011;2166;49.926;8.608;2023-08-07T08:02:39;4.93;;;1.67;;
4305;SDS011;2166;49.926;8.608;2023-08-07T08:05:11;3.20;;;1.30;;
4305;SDS011;2166;49.926;8.608;2023-08-07T08:07:42;3.17;;;1.30;;
4305;SDS011;2166;49.926;8.608;2023-08-07T08:10:12;6.50;;;1.48;;
4305;SDS011;2166;49.926;8.608;2023-08-07T08:12:40;2.97;;;1.10;;
4305;SDS011;2166;49.926;8.608;2023-08-07T08:15:09;2.08;;;1.40;;
4305;SDS011;2166;49.926;8.608;2023-08-07T08:17:38;3.75;;;1.50;;
4305;SDS011;2166;49.926;8.608;2023-08-07T08:20:07;3.17;;;1.35;;
4305;SDS011;2166;49.926;8.608;2023-08-07T08:22:36;4.53;;;1.40;;
4305;SDS011;2166;49.926;8.608;2023-08-07T08:25:05;3.22;;;1.27;;
4305;SDS011;2166;49.926;8.608;2023-08-07T08:27:35;3.13;;;0.82;;
4305;SDS011;2166;49.926;8.608;2023-08-07T08:30:04;3.80;;;1.17;;
4305;SDS011;2166;49.926;8.608;2023-08-07T08:32:33;4.18;;;1.70;;
4305;SDS011;2166;49.926;8.608;2023-08-07T08:35:02;3.63;;;1.58;;
4305;SDS011;2166;49.926;8.608;2023-08-07T08:37:30;4.25;;;1.55;;
4305;SDS011;2166;49.926;8.608;2023-08-07T08:39:59;2.92;;;1.30;;
4305;SDS011;2166;49.926;8.608;2023-08-07T08:42:28;6.63;;;1.60;;
4305;SDS011;2166;49.926;8.608;2023-08-07T08:44:58;7.53;;;1.40;;
4305;SDS011;2166;49.926;8.608;2023-08-07T08:47:27;5.18;;;2.38;;
4305;SDS011;2166;49.926;8.608;2023-08-07T08:49:58;5.03;;;1.67;;
4305;SDS011;2166;49.926;8.608;2023-08-07T08:52:30;7.35;;;1.92;;
4305;SDS011;2166;49.926;8.608;2023-08-07T08:54:59;3.55;;;1.60;;
4305;SDS011;2166;49.926;8.608;2023-08-07T08:57:29;4.40;;;1.65;;
4305;SDS011;2166;49.926;8.608;2023-08-07T08:59:59;4.95;;;1.30;;
4305;SDS011;2166;49.926;8.608;2023-08-07T09:02:28;4.28;;;1.30;;
4305;SDS011;2166;49.926;8.608;2023-08-07T09:04:57;4.38;;;1.85;;
4305;SDS011;2166;49.926;8.608;2023-08-07T09:07:26;8.43;;;2.72;;
4305;SDS011;2166;49.926;8.608;2023-08-07T09:09:58;3.97;;;1.40;;
4305;SDS011;2166;49.926;8.608;2023-08-07T09:12:27;2.20;;;1.30;;
4305;SDS011;2166;49.926;8.608;2023-08-07T09:15:02;4.47;;;1.60;;
4305;SDS011;2166;49.926;8.608;2023-08-07T09:17:33;5.55;;;1.30;;
4305;SDS011;2166;49.926;8.608;2023-08-07T09:20:07;6.53;;;1.75;;
4305;SDS011;2166;49.926;8.608;2023-08-07T09:22:38;5.60;;;1.92;;
4305;SDS011;2166;49.926;8.608;2023-08-07T09:25:07;20.48;;;2.03;;
4305;SDS011;2166;49.926;8.608;2023-08-07T09:27:37;2.45;;;1.40;;
4305;SDS011;2166;49.926;8.608;2023-08-07T09:30:08;2.08;;;1.08;;
4305;SDS011;2166;49.926;8.608;2023-08-07T09:32:38;3.92;;;1.25;;
4305;SDS011;2166;49.926;8.608;2023-08-07T09:35:07;6.40;;;1.77;;
4305;SDS011;2166;49.926;8.608;2023-08-07T09:37:37;3.20;;;1.80;;
4305;SDS011;2166;49.926;8.608;2023-08-07T09:40:06;6.70;;;2.28;;
4305;SDS011;2166;49.926;8.608;2023-08-07T09:42:39;3.28;;;1.88;;
4305;SDS011;2166;49.926;8.608;2023-08-07T09:45:20;5.38;;;1.77;;
4305;SDS011;2166;49.926;8.608;2023-08-07T09:47:56;4.13;;;1.45;;
4305;SDS011;2166;49.926;8.608;2023-08-07T09:50:25;6.20;;;1.73;;
4305;SDS011;2166;49.926;8.608;2023-08-07T09:52:55;3.20;;;1.48;;
4305;SDS011;2166;49.926;8.608;2023-08-07T09:55:24;4.75;;;1.65;;
4305;SDS011;2166;49.926;8.608;2023-08-07T09:57:53;5.15;;;2.03;;
4305;SDS011;2166;49.926;8.608;2023-08-07T10:00:24;6.63;;;1.63;;
4305;SDS011;2166;49.926;8.608;2023-08-07T10:02:53;3.20;;;1.45;;
4305;SDS011;2166;49.926;8.608;2023-08-07T10:05:22;3.95;;;1.70;;
4305;SDS011;2166;49.926;8.608;2023-08-07T10:07:50;4.20;;;1.88;;
4305;SDS011;2166;49.926;8.608;2023-08-07T10:10:21;7.65;;;2.30;;
4305;SDS011;2166;49.926;8.608;2023-08-07T10:12:49;3.83;;;1.67;;
4305;SDS011;2166;49.926;8.608;2023-08-07T10:15:19;6.03;;;2.58;;
4305;SDS011;2166;49.926;8.608;2023-08-07T10:17:50;6.32;;;1.50;;
4305;SDS011;2166;49.926;8.608;2023-08-07T10:20:18;6.00;;;2.15;;
4305;SDS011;2166;49.926;8.608;2023-08-07T10:22:48;2.50;;;1.50;;
4305;SDS011;2166;49.926;8.608;2023-08-07T10:25:17;2.38;;;1.55;;
4305;SDS011;2166;49.926;8.608;2023-08-07T10:27:50;3.53;;;1.77;;
4305;SDS011;2166;49.926;8.608;2023-08-07T10:30:21;4.75;;;2.55;;
4305;SDS011;2166;49.926;8.608;2023-08-07T10:32:52;3.00;;;1.60;;
4305;SDS011;2166;49.926;8.608;2023-08-07T10:35:25;5.35;;;2.05;;
4305;SDS011;2166;49.926;8.608;2023-08-07T10:38:04;4.63;;;1.60;;
4305;SDS011;2166;49.926;8.608;2023-08-07T10:40:34;5.43;;;1.52;;
4305;SDS011;2166;49.926;8.608;2023-08-07T10:43:26;3.67;;;1.67;;
4305;SDS011;2166;49.926;8.608;2023-08-07T10:45:59;8.15;;;2.08;;
4305;SDS011;2166;49.926;8.608;2023-08-07T10:48:40;5.57;;;1.67;;
4305;SDS011;2166;49.926;8.608;2023-08-07T10:51:11;4.43;;;1.60;;
4305;SDS011;2166;49.926;8.608;2023-08-07T10:53:41;4.35;;;1.60;;
4305;SDS011;2166;49.926;8.608;2023-08-07T10:56:14;5.50;;;1.90;;
4305;SDS011;2166;49.926;8.608;2023-08-07T10:58:48;3.72;;;1.58;;
4305;SDS011;2166;49.926;8.608;2023-08-07T11:01:22;2.92;;;1.33;;
4305;SDS011;2166;49.926;8.608;2023-08-07T11:03:57;3.20;;;1.27;;
4305;SDS011;2166;49.926;8.608;2023-08-07T11:06:28;6.82;;;2.42;;
4305;SDS011;2166;49.926;8.608;2023-08-07T11:08:58;3.83;;;1.90;;
4305;SDS011;2166;49.926;8.608;2023-08-07T11:11:26;5.70;;;1.83;;
4305;SDS011;2166;49.926;8.608;2023-08-07T11:13:55;2.50;;;1.42;;
4305;SDS011;2166;49.926;8.608;2023-08-07T11:16:23;4.50;;;1.35;;
4305;SDS011;2166;49.926;8.608;2023-08-07T11:18:52;2.33;;;1.17;;
4305;SDS011;2166;49.926;8.608;2023-08-07T11:21:23;3.65;;;1.70;;
4305;SDS011;2166;49.926;8.608;2023-08-07T11:23:54;3.58;;;1.67;;
4305;SDS011;2166;49.926;8.608;2023-08-07T11:26:23;3.95;;;1.42;;
4305;SDS011;2166;49.926;8.608;2023-08-07T11:28:52;6.38;;;1.63;;
4305;SDS011;2166;49.926;8.608;2023-08-07T11:31:21;3.22;;;1.65;;
4305;SDS011;2166;49.926;8.608;2023-08-07T11:33:51;2.60;;;1.20;;
4305;SDS011;2166;49.926;8.608;2023-08-07T11:36:20;4.20;;;1.65;;
4305;SDS011;2166;49.926;8.608;2023-08-07T11:38:51;2.70;;;1.02;;
4305;SDS011;2166;49.926;8.608;2023-08-07T11:41:20;3.85;;;1.10;;
4305;SDS011;2166;49.926;8.608;2023-08-07T11:43:48;2.05;;;1.20;;
4305;SDS011;2166;49.926;8.608;2023-08-07T11:46:17;2.60;;;1.15;;
4305;SDS011;2166;49.926;8.608;2023-08-07T11:48:46;2.22;;;1.10;;
4305;SDS011;2166;49.926;8.608;2023-08-07T11:51:14;1.27;;;1.02;;
4305;SDS011;2166;49.926;8.608;2023-08-07T11:53:44;2.58;;;1.13;;
4305;SDS011;2166;49.926;8.608;2023-08-07T11:56:14;1.33;;;0.80;;
4305;SDS011;2166;49.926;8.608;2023-08-07T11:58:45;1.58;;;1.05;;
4305;SDS011;2166;49.926;8.608;2023-08-07T12:01:15;5.80;;;1.10;;
4305;SDS011;2166;49.926;8.608;2023-08-07T12:03:51;3.58;;;1.70;;
4305;SDS011;2166;49.926;8.608;2023-08-07T12:06:22;2.70;;;1.10;;
4305;SDS011;2166;49.926;8.608;2023-08-07T12:08:53;3.58;;;1.20;;
4305;SDS011;2166;49.926;8.608;2023-08-07T12:11:25;3.00;;;0.98;;
4305;SDS011;2166;49.926;8.608;2023-08-07T12:13:53;3.03;;;0.85;;
4305;SDS011;2166;49.926;8.608;2023-08-07T12:16:22;1.88;;;0.90;;
4305;SDS011;2166;49.926;8.608;2023-08-07T12:18:50;2.45;;;1.10;;
4305;SDS011;2166;49.926;8.608;2023-08-07T12:21:20;3.28;;;1.10;;
4305;SDS011;2166;49.926;8.608;2023-08-07T12:23:51;3.03;;;1.13;;
4305;SDS011;2166;49.926;8.608;2023-08-07T12:26:22;2.28;;;0.95;;
4305;SDS011;2166;49.926;8.608;2023-08-07T12:28:53;6.07;;;1.20;;
4305;SDS011;2166;49.926;8.608;2023-08-07T12:31:21;2.42;;;1.25;;
4305;SDS011;2166;49.926;8.608;2023-08-07T12:33:49;4.32;;;1.13;;
4305;SDS011;2166;49.926;8.608;2023-08-07T12:36:19;2.92;;;1.10;;
4305;SDS011;2166;49.926;8.608;2023-08-07T12:38:48;8.50;;;1.52;;
4305;SDS011;2166;49.926;8.608;2023-08-07T12:41:16;5.43;;;1.27;;
4305;SDS011;2166;49.926;8.608;2023-08-07T12:43:50;2.60;;;1.30;;
4305;SDS011;2166;49.926;8.608;2023-08-07T12:46:20;3.33;;;1.08;;
4305;SDS011;2166;49.926;8.608;2023-08-07T12:48:51;10.43;;;1.60;;
4305;SDS011;2166;49.926;8.608;2023-08-07T12:51:20;2.33;;;1.27;;
4305;SDS011;2166;49.926;8.608;2023-08-07T12:53:49;6.20;;;1.52;;
4305;SDS011;2166;49.926;8.608;2023-08-07T12:56:18;4.53;;;1.45;;
4305;SDS011;2166;49.926;8.608;2023-08-07T12:58:47;2.50;;;1.25;;
4305;SDS011;2166;49.926;8.608;2023-08-07T13:01:17;5.55;;;1.30;;
4305;SDS011;2166;49.926;8.608;2023-08-07T13:03:46;3.80;;;1.70;;
4305;SDS011;2166;49.926;8.608;2023-08-07T13:06:15;3.60;;;1.60;;
4305;SDS011;2166;49.926;8.608;2023-08-07T13:08:44;4.18;;;1.25;;
4305;SDS011;2166;49.926;8.608;2023-08-07T13:11:16;3.10;;;1.10;;
4305;SDS011;2166;49.926;8.608;2023-08-07T13:13:45;3.08;;;1.10;;
4305;SDS011;2166;49.926;8.608;2023-08-07T13:16:15;1.95;;;1.00;;
4305;SDS011;2166;49.926;8.608;2023-08-07T13:18:43;4.03;;;1.10;;
4305;SDS011;2166;49.926;8.608;2023-08-07T13:21:13;4.43;;;1.20;;
4305;SDS011;2166;49.926;8.608;2023-08-07T13:23:42;4.07;;;1.50;;
4305;SDS011;2166;49.926;8.608;2023-08-07T13:26:10;3.13;;;1.38;;
4305;SDS011;2166;49.926;8.608;2023-08-07T13:28:39;3.65;;;0.73;;
4305;SDS011;2166;49.926;8.608;2023-08-07T13:31:08;2.75;;;1.20;;
4305;SDS011;2166;49.926;8.608;2023-08-07T13:33:38;2.38;;;1.13;;
4305;SDS011;2166;49.926;8.608;2023-08-07T13:36:06;1.70;;;0.80;;
4305;SDS011;2166;49.926;8.608;2023-08-07T13:38:36;2.38;;;0.80;;
4305;SDS011;2166;49.926;8.608;2023-08-07T13:41:06;3.05;;;1.30;;
4305;SDS011;2166;49.926;8.608;2023-08-07T13:43:36;1.45;;;0.93;;
4305;SDS011;2166;49.926;8.608;2023-08-07T13:46:04;2.88;;;1.10;;
4305;SDS011;2166;49.926;8.608;2023-08-07T13:48:33;4.82;;;1.05;;
4305;SDS011;2166;49.926;8.608;2023-08-07T13:51:01;2.72;;;1.10;;
4305;SDS011;2166;49.926;8.608;2023-08-07T13:53:33;1.98;;;1.05;;
4305;SDS011;2166;49.926;8.608;2023-08-07T13:56:03;2.63;;;0.90;;
4305;SDS011;2166;49.926;8.608;2023-08-07T13:58:33;2.85;;;1.13;;
4305;SDS011;2166;49.926;8.608;2023-08-07T14:01:02;2.17;;;1.55;;
4305;SDS011;2166;49.926;8.608;2023-08-07T14:03:31;4.25;;;1.23;;
4305;SDS011;2166;49.926;8.608;2023-08-07T14:06:00;3.13;;;1.20;;
4305;SDS011;2166;49.926;8.608;2023-08-07T14:08:29;3.00;;;0.98;;
4305;SDS011;2166;49.926;8.608;2023-08-07T14:10:59;2.05;;;0.82;;
4305;SDS011;2166;49.926;8.608;2023-08-07T14:13:29;1.38;;;0.70;;
4305;SDS011;2166;49.926;8.608;2023-08-07T14:15:57;1.73;;;0.93;;
4305;SDS011;2166;49.926;8.608;2023-08-07T14:18:26;2.80;;;1.02;;
4305;SDS011;2166;49.926;8.608;2023-08-07T14:20:54;1.02;;;0.70;;
4305;SDS011;2166;49.926;8.608;2023-08-07T14:23:30;2.97;;;0.80;;
4305;SDS011;2166;49.926;8.608;2023-08-07T14:26:18;2.13;;;0.88;;
4305;SDS011;2166;49.926;8.608;2023-08-07T14:28:49;2.33;;;0.93;;
4305;SDS011;2166;49.926;8.608;2023-08-07T14:31:17;2.97;;;1.10;;
4305;SDS011;2166;49.926;8.608;2023-08-07T14:33:46;2.42;;;1.13;;
4305;SDS011;2166;49.926;8.608;2023-08-07T14:36:15;2.53;;;1.08;;
4305;SDS011;2166;49.926;8.608;2023-08-07T14:38:43;2.50;;;1.20;;
4305;SDS011;2166;49.926;8.608;2023-08-07T14:41:12;3.42;;;0.93;;
4305;SDS011;2166;49.926;8.608;2023-08-07T14:43:40;2.85;;;1.35;;
4305;SDS011;2166;49.926;8.608;2023-08-07T14:46:10;2.75;;;1.35;;
4305;SDS011;2166;49.926;8.608;2023-08-07T14:48:39;2.13;;;1.20;;
4305;SDS011;2166;49.926;8.608;2023-08-07T14:51:07;3.97;;;1.27;;
4305;SDS011;2166;49.926;8.608;2023-08-07T14:53:36;2.50;;;0.70;;
4305;SDS011;2166;49.926;8.608;2023-08-07T14:56:05;3.10;;;1.38;;
4305;SDS011;2166;49.926;8.608;2023-08-07T14:58:34;1.75;;;1.17;;
4305;SDS011;2166;49.926;8.608;2023-08-07T15:01:03;1.88;;;1.00;;
4305;SDS011;2166;49.926;8.608;2023-08-07T15:03:33;2.30;;;1.40;;
4305;SDS011;2166;49.926;8.608;2023-08-07T15:06:01;1.70;;;1.15;;
4305;SDS011;2166;49.926;8.608;2023-08-07T15:08:31;2.80;;;1.58;;
4305;SDS011;2166;49.926;8.608;2023-08-07T15:11:00;4.78;;;1.38;;
4305;SDS011;2166;49.926;8.608;2023-08-07T15:13:28;3.55;;;1.20;;
4305;SDS011;2166;49.926;8.608;2023-08-07T15:15:56;3.60;;;1.58;;
4305;SDS011;2166;49.926;8.608;2023-08-07T15:18:25;3.35;;;1.10;;
4305;SDS011;2166;49.926;8.608;2023-08-07T15:20:56;2.40;;;1.20;;
4305;SDS011;2166;49.926;8.608;2023-08-07T15:23:27;3.47;;;1.25;;
4305;SDS011;2166;49.926;8.608;2023-08-07T15:25:55;2.97;;;1.02;;
4305;SDS011;2166;49.926;8.608;2023-08-07T15:28:24;1.33;;;0.93;;
4305;SDS011;2166;49.926;8.608;2023-08-07T15:30:52;3.00;;;1.20;;